sensor_id;sensor_type;location;lat;lon;timestamp;temperature;humidity
12926;DHT22;6529;50.566;9.774;2022-11-15T00:00:33;11.20;99.90
12926;DHT22;6529;50.566;9.774;2022-11-15T00:02:59;11.10;99.90
12926;DHT22;6529;50.566;9.774;2022-11-15T00:05:25;11.20;99.90
12926;DHT22;6529;50.566;9.774;2022-11-15T00:07:50;11.20;99.90
12926;DHT22;6529;50.566;9.774;2022-11-15T00:10:16;11.10;99.90
12926;DHT22;6529;50.566;9.774;2022-11-15T00:12:42;11.20;99.90
12926;DHT22;6529;50.566;9.774;2022-11-15T00:15:08;11.20;99.90
12926;DHT22;6529;50.566;9.774;2022-11-15T00:17:33;11.20;99.90
12926;DHT22;6529;50.566;9.774;2022-11-15T00:19:59;11.20;99.90
12926;DHT22;6529;50.566;9.774;2022-11-15T00:22:24;11.20;99.90
12926;DHT22;6529;50.566;9.774;2022-11-15T00:24:50;11.20;99.90
12926;DHT22;6529;50.566;9.774;2022-11-15T00:27:15;11.20;99.90
12926;DHT22;6529;50.566;9.774;2022-11-15T00:29:41;11.30;99.90
12926;DHT22;6529;50.566;9.774;2022-11-15T00:32:11;11.20;99.90
12926;DHT22;6529;50.566;9.774;2022-11-15T00:34:36;11.30;99.90
12926;DHT22;6529;50.566;9.774;2022-11-15T00:37:02;11.20;99.90
12926;DHT22;6529;50.566;9.774;2022-11-15T00:39:28;11.20;99.90
12926;DHT22;6529;50.566;9.774;2022-11-15T00:41:53;11.30;99.90
12926;DHT22;6529;50.566;9.774;2022-11-15T00:44:19;11.20;99.90
12926;DHT22;6529;50.566;9.774;2022-11-15T00:46:44;11.20;99.90
12926;DHT22;6529;50.566;9.774;2022-11-15T00:49:10;11.20;99.90
12926;DHT22;6529;50.566;9.774;2022-11-15T00:51:35;11.10;99.90
12926;DHT22;6529;50.566;9.774;2022-11-15T00:54:01;11.10;99.90
12926;DHT22;6529;50.566;9.774;2022-11-15T00:56:26;11.10;99.90
12926;DHT22;6529;50.566;9.774;2022-11-15T00:58:52;11.10;99.90
12926;DHT22;6529;50.566;9.774;2022-11-15T01:01:18;11.10;99.90
12926;DHT22;6529;50.566;9.774;2022-11-15T01:03:43;11.10;99.90
12926;DHT22;6529;50.566;9.774;2022-11-15T01:06:09;11.20;99.90
12926;DHT22;6529;50.566;9.774;2022-11-15T01:08:36;11.20;99.90
12926;DHT22;6529;50.566;9.774;2022-11-15T01:11:10;11.20;99.90
12926;DHT22;6529;50.566;9.774;2022-11-15T01:13:37;11.20;99.90
12926;DHT22;6529;50.566;9.774;2022-11-15T01:16:16;11.20;99.90
12926;DHT22;6529;50.566;9.774;2022-11-15T01:18:43;11.10;99.90
12926;DHT22;6529;50.566;9.774;2022-11-15T01:21:10;11.10;99.90
12926;DHT22;6529;50.566;9.774;2022-11-15T01:23:37;11.10;99.90
12926;DHT22;6529;50.566;9.774;2022-11-15T01:26:04;11.10;99.90
12926;DHT22;6529;50.566;9.774;2022-11-15T01:28:35;11.10;99.90
12926;DHT22;6529;50.566;9.774;2022-11-15T01:31:03;11.00;99.90
12926;DHT22;6529;50.566;9.774;2022-11-15T01:33:30;11.00;99.90
12926;DHT22;6529;50.566;9.774;2022-11-15T01:35:56;11.00;99.90
12926;DHT22;6529;50.566;9.774;2022-11-15T01:38:22;10.90;99.90
12926;DHT22;6529;50.566;9.774;2022-11-15T01:40:48;10.80;99.90
12926;DHT22;6529;50.566;9.774;2022-11-15T01:45:52;10.70;99.90
12926;DHT22;6529;50.566;9.774;2022-11-15T01:48:21;10.60;99.90
12926;DHT22;6529;50.566;9.774;2022-11-15T01:50:48;10.60;99.90
12926;DHT22;6529;50.566;9.774;2022-11-15T01:53:14;10.50;99.90
12926;DHT22;6529;50.566;9.774;2022-11-15T01:55:40;10.60;99.90
12926;DHT22;6529;50.566;9.774;2022-11-15T01:58:07;10.50;99.90
12926;DHT22;6529;50.566;9.774;2022-11-15T02:00:33;10.50;99.90
12926;DHT22;6529;50.566;9.774;2022-11-15T02:02:58;10.40;99.90
12926;DHT22;6529;50.566;9.774;2022-11-15T02:05:24;10.50;99.90
12926;DHT22;6529;50.566;9.774;2022-11-15T02:07:50;10.60;99.90
12926;DHT22;6529;50.566;9.774;2022-11-15T02:10:21;10.60;99.90
12926;DHT22;6529;50.566;9.774;2022-11-15T02:12:48;10.70;99.90
12926;DHT22;6529;50.566;9.774;2022-11-15T02:15:14;10.80;99.90
12926;DHT22;6529;50.566;9.774;2022-11-15T02:21:09;10.80;99.90
12926;DHT22;6529;50.566;9.774;2022-11-15T02:29:53;10.90;99.90
12926;DHT22;6529;50.566;9.774;2022-11-15T02:32:45;10.90;99.90
12926;DHT22;6529;50.566;9.774;2022-11-15T02:35:41;10.80;99.90
12926;DHT22;6529;50.566;9.774;2022-11-15T02:41:02;10.80;99.90
12926;DHT22;6529;50.566;9.774;2022-11-15T02:43:46;10.80;99.90
12926;DHT22;6529;50.566;9.774;2022-11-15T02:46:40;10.80;99.90
12926;DHT22;6529;50.566;9.774;2022-11-15T02:49:29;10.80;99.90
12926;DHT22;6529;50.566;9.774;2022-11-15T02:51:56;10.70;99.90
12926;DHT22;6529;50.566;9.774;2022-11-15T02:54:31;10.70;99.90
12926;DHT22;6529;50.566;9.774;2022-11-15T02:57:04;10.70;99.90
12926;DHT22;6529;50.566;9.774;2022-11-15T02:59:38;10.60;99.90
12926;DHT22;6529;50.566;9.774;2022-11-15T03:05:13;10.70;99.90
12926;DHT22;6529;50.566;9.774;2022-11-15T03:07:43;10.80;99.90
12926;DHT22;6529;50.566;9.774;2022-11-15T03:10:57;10.80;99.90
12926;DHT22;6529;50.566;9.774;2022-11-15T03:13:36;10.70;99.90
12926;DHT22;6529;50.566;9.774;2022-11-15T03:16:20;10.60;99.90
12926;DHT22;6529;50.566;9.774;2022-11-15T03:21:39;10.50;99.90
12926;DHT22;6529;50.566;9.774;2022-11-15T03:24:07;10.50;99.90
12926;DHT22;6529;50.566;9.774;2022-11-15T03:26:35;10.40;99.90
12926;DHT22;6529;50.566;9.774;2022-11-15T03:29:17;10.40;99.90
12926;DHT22;6529;50.566;9.774;2022-11-15T03:31:48;10.50;99.90
12926;DHT22;6529;50.566;9.774;2022-11-15T03:34:47;10.60;99.90
12926;DHT22;6529;50.566;9.774;2022-11-15T03:37:16;10.60;99.90
12926;DHT22;6529;50.566;9.774;2022-11-15T03:39:42;10.50;99.90
12926;DHT22;6529;50.566;9.774;2022-11-15T03:42:32;10.40;99.90
12926;DHT22;6529;50.566;9.774;2022-11-15T03:45:23;10.40;99.90
12926;DHT22;6529;50.566;9.774;2022-11-15T03:48:19;10.20;99.90
12926;DHT22;6529;50.566;9.774;2022-11-15T03:50:47;10.20;99.90
12926;DHT22;6529;50.566;9.774;2022-11-15T03:53:13;10.20;99.90
12926;DHT22;6529;50.566;9.774;2022-11-15T03:55:39;10.10;99.90
12926;DHT22;6529;50.566;9.774;2022-11-15T03:58:04;10.10;99.90
12926;DHT22;6529;50.566;9.774;2022-11-15T04:00:30;10.10;99.90
12926;DHT22;6529;50.566;9.774;2022-11-15T04:02:56;10.10;99.90
12926;DHT22;6529;50.566;9.774;2022-11-15T04:05:21;10.00;99.90
12926;DHT22;6529;50.566;9.774;2022-11-15T04:07:47;10.00;99.90
12926;DHT22;6529;50.566;9.774;2022-11-15T04:10:13;10.10;99.90
12926;DHT22;6529;50.566;9.774;2022-11-15T04:12:40;10.00;99.90
12926;DHT22;6529;50.566;9.774;2022-11-15T04:15:11;10.10;99.90
12926;DHT22;6529;50.566;9.774;2022-11-15T04:17:42;10.20;99.90
12926;DHT22;6529;50.566;9.774;2022-11-15T04:20:20;10.20;99.90
12926;DHT22;6529;50.566;9.774;2022-11-15T04:23:11;10.30;99.90
12926;DHT22;6529;50.566;9.774;2022-11-15T04:25:59;10.20;99.90
12926;DHT22;6529;50.566;9.774;2022-11-15T04:28:25;10.10;99.90
12926;DHT22;6529;50.566;9.774;2022-11-15T04:30:51;10.00;99.90
12926;DHT22;6529;50.566;9.774;2022-11-15T04:33:17;9.90;99.90
12926;DHT22;6529;50.566;9.774;2022-11-15T04:35:42;9.80;99.90
12926;DHT22;6529;50.566;9.774;2022-11-15T04:38:10;9.70;99.90
12926;DHT22;6529;50.566;9.774;2022-11-15T04:40:36;9.60;99.90
12926;DHT22;6529;50.566;9.774;2022-11-15T04:43:03;9.60;99.90
12926;DHT22;6529;50.566;9.774;2022-11-15T04:45:28;9.50;99.90
12926;DHT22;6529;50.566;9.774;2022-11-15T04:47:54;9.50;99.90
12926;DHT22;6529;50.566;9.774;2022-11-15T04:50:19;9.50;99.90
12926;DHT22;6529;50.566;9.774;2022-11-15T04:52:53;9.50;99.90
12926;DHT22;6529;50.566;9.774;2022-11-15T04:55:19;9.40;99.90
12926;DHT22;6529;50.566;9.774;2022-11-15T04:57:45;9.30;99.90
12926;DHT22;6529;50.566;9.774;2022-11-15T05:00:13;9.20;99.90
12926;DHT22;6529;50.566;9.774;2022-11-15T05:02:39;9.10;99.90
12926;DHT22;6529;50.566;9.774;2022-11-15T05:05:24;9.10;99.90
12926;DHT22;6529;50.566;9.774;2022-11-15T05:07:50;9.00;99.90
12926;DHT22;6529;50.566;9.774;2022-11-15T05:10:15;8.90;99.90
12926;DHT22;6529;50.566;9.774;2022-11-15T05:12:41;8.90;99.90
12926;DHT22;6529;50.566;9.774;2022-11-15T05:15:07;8.80;99.90
12926;DHT22;6529;50.566;9.774;2022-11-15T05:17:33;8.70;99.90
12926;DHT22;6529;50.566;9.774;2022-11-15T05:19:59;8.70;99.90
12926;DHT22;6529;50.566;9.774;2022-11-15T05:22:25;8.60;99.90
12926;DHT22;6529;50.566;9.774;2022-11-15T05:24:51;8.60;99.90
12926;DHT22;6529;50.566;9.774;2022-11-15T05:27:16;8.50;99.90
12926;DHT22;6529;50.566;9.774;2022-11-15T05:29:42;8.30;99.90
12926;DHT22;6529;50.566;9.774;2022-11-15T05:32:08;8.20;99.90
12926;DHT22;6529;50.566;9.774;2022-11-15T05:34:34;8.30;99.90
12926;DHT22;6529;50.566;9.774;2022-11-15T05:37:00;8.30;99.90
12926;DHT22;6529;50.566;9.774;2022-11-15T05:39:26;8.30;99.90
12926;DHT22;6529;50.566;9.774;2022-11-15T05:42:00;8.20;99.90
12926;DHT22;6529;50.566;9.774;2022-11-15T05:44:26;8.10;99.90
12926;DHT22;6529;50.566;9.774;2022-11-15T05:46:54;8.00;99.90
12926;DHT22;6529;50.566;9.774;2022-11-15T05:49:24;8.00;99.90
12926;DHT22;6529;50.566;9.774;2022-11-15T05:51:51;8.00;99.90
12926;DHT22;6529;50.566;9.774;2022-11-15T05:54:19;8.00;99.90
12926;DHT22;6529;50.566;9.774;2022-11-15T05:56:45;7.90;99.90
12926;DHT22;6529;50.566;9.774;2022-11-15T05:59:11;7.90;99.90
12926;DHT22;6529;50.566;9.774;2022-11-15T06:01:37;7.80;99.90
12926;DHT22;6529;50.566;9.774;2022-11-15T06:04:04;7.70;99.90
12926;DHT22;6529;50.566;9.774;2022-11-15T06:06:29;7.70;99.90
12926;DHT22;6529;50.566;9.774;2022-11-15T06:08:55;7.60;99.90
12926;DHT22;6529;50.566;9.774;2022-11-15T06:11:20;7.50;99.90
12926;DHT22;6529;50.566;9.774;2022-11-15T06:13:46;7.50;99.90
12926;DHT22;6529;50.566;9.774;2022-11-15T06:16:11;7.50;99.90
12926;DHT22;6529;50.566;9.774;2022-11-15T06:18:37;7.80;99.90
12926;DHT22;6529;50.566;9.774;2022-11-15T06:21:03;8.20;99.90
12926;DHT22;6529;50.566;9.774;2022-11-15T06:23:32;8.50;99.90
12926;DHT22;6529;50.566;9.774;2022-11-15T06:25:58;9.00;99.90
12926;DHT22;6529;50.566;9.774;2022-11-15T06:28:25;9.30;99.90
12926;DHT22;6529;50.566;9.774;2022-11-15T06:30:53;9.40;99.90
12926;DHT22;6529;50.566;9.774;2022-11-15T06:33:18;9.50;99.90
12926;DHT22;6529;50.566;9.774;2022-11-15T06:35:44;9.60;99.90
12926;DHT22;6529;50.566;9.774;2022-11-15T06:38:10;9.30;99.90
12926;DHT22;6529;50.566;9.774;2022-11-15T06:40:37;9.00;99.90
12926;DHT22;6529;50.566;9.774;2022-11-15T06:43:03;8.90;99.90
12926;DHT22;6529;50.566;9.774;2022-11-15T06:45:29;8.80;99.90
12926;DHT22;6529;50.566;9.774;2022-11-15T06:47:55;8.70;99.90
12926;DHT22;6529;50.566;9.774;2022-11-15T06:50:20;8.60;99.90
12926;DHT22;6529;50.566;9.774;2022-11-15T06:52:46;8.60;99.90
12926;DHT22;6529;50.566;9.774;2022-11-15T06:55:12;8.60;99.90
12926;DHT22;6529;50.566;9.774;2022-11-15T06:57:42;8.60;99.90
12926;DHT22;6529;50.566;9.774;2022-11-15T07:00:11;8.50;99.90
12926;DHT22;6529;50.566;9.774;2022-11-15T07:02:37;8.50;99.90
12926;DHT22;6529;50.566;9.774;2022-11-15T07:05:02;8.50;99.90
12926;DHT22;6529;50.566;9.774;2022-11-15T07:07:28;8.50;99.90
12926;DHT22;6529;50.566;9.774;2022-11-15T07:09:53;8.60;99.90
12926;DHT22;6529;50.566;9.774;2022-11-15T07:12:19;8.70;99.90
12926;DHT22;6529;50.566;9.774;2022-11-15T07:14:45;8.60;99.90
12926;DHT22;6529;50.566;9.774;2022-11-15T07:17:10;8.60;99.90
12926;DHT22;6529;50.566;9.774;2022-11-15T07:19:36;8.60;99.90
12926;DHT22;6529;50.566;9.774;2022-11-15T07:22:01;8.60;99.90
12926;DHT22;6529;50.566;9.774;2022-11-15T07:24:27;8.50;99.90
12926;DHT22;6529;50.566;9.774;2022-11-15T07:26:52;8.50;99.90
12926;DHT22;6529;50.566;9.774;2022-11-15T07:29:18;8.50;99.90
12926;DHT22;6529;50.566;9.774;2022-11-15T07:31:43;8.50;99.90
12926;DHT22;6529;50.566;9.774;2022-11-15T07:34:09;8.40;99.90
12926;DHT22;6529;50.566;9.774;2022-11-15T07:36:35;8.40;99.90
12926;DHT22;6529;50.566;9.774;2022-11-15T07:39:00;8.40;99.90
12926;DHT22;6529;50.566;9.774;2022-11-15T07:41:26;8.40;99.90
12926;DHT22;6529;50.566;9.774;2022-11-15T07:43:52;8.30;99.90
12926;DHT22;6529;50.566;9.774;2022-11-15T07:46:18;8.20;99.90
12926;DHT22;6529;50.566;9.774;2022-11-15T07:48:43;8.20;99.90
12926;DHT22;6529;50.566;9.774;2022-11-15T07:51:12;8.50;99.90
12926;DHT22;6529;50.566;9.774;2022-11-15T07:53:39;9.00;99.90
12926;DHT22;6529;50.566;9.774;2022-11-15T07:56:08;9.30;99.90
12926;DHT22;6529;50.566;9.774;2022-11-15T07:58:33;9.30;99.90
12926;DHT22;6529;50.566;9.774;2022-11-15T08:01:03;9.10;99.90
12926;DHT22;6529;50.566;9.774;2022-11-15T08:03:29;9.00;99.90
12926;DHT22;6529;50.566;9.774;2022-11-15T08:05:54;9.00;99.90
12926;DHT22;6529;50.566;9.774;2022-11-15T08:08:20;9.00;99.90
12926;DHT22;6529;50.566;9.774;2022-11-15T08:10:46;9.10;99.90
12926;DHT22;6529;50.566;9.774;2022-11-15T08:13:12;9.20;99.90
12926;DHT22;6529;50.566;9.774;2022-11-15T08:15:38;9.40;99.90
12926;DHT22;6529;50.566;9.774;2022-11-15T08:18:09;9.50;99.90
12926;DHT22;6529;50.566;9.774;2022-11-15T08:20:35;9.70;99.90
12926;DHT22;6529;50.566;9.774;2022-11-15T08:23:02;9.90;99.90
12926;DHT22;6529;50.566;9.774;2022-11-15T08:25:30;10.00;99.90
12926;DHT22;6529;50.566;9.774;2022-11-15T08:27:58;10.10;99.90
12926;DHT22;6529;50.566;9.774;2022-11-15T08:30:24;10.20;99.90
12926;DHT22;6529;50.566;9.774;2022-11-15T08:32:51;10.30;99.90
12926;DHT22;6529;50.566;9.774;2022-11-15T08:35:17;10.40;99.90
12926;DHT22;6529;50.566;9.774;2022-11-15T08:37:43;10.60;99.90
12926;DHT22;6529;50.566;9.774;2022-11-15T08:40:09;10.70;99.90
12926;DHT22;6529;50.566;9.774;2022-11-15T08:42:35;10.80;99.90
12926;DHT22;6529;50.566;9.774;2022-11-15T08:45:01;11.00;99.90
12926;DHT22;6529;50.566;9.774;2022-11-15T08:47:27;11.10;99.90
12926;DHT22;6529;50.566;9.774;2022-11-15T08:49:53;11.20;99.90
12926;DHT22;6529;50.566;9.774;2022-11-15T08:52:18;11.30;99.90
12926;DHT22;6529;50.566;9.774;2022-11-15T08:54:44;11.50;99.90
12926;DHT22;6529;50.566;9.774;2022-11-15T08:57:10;11.60;99.90
12926;DHT22;6529;50.566;9.774;2022-11-15T08:59:36;11.70;99.90
12926;DHT22;6529;50.566;9.774;2022-11-15T09:02:02;11.90;99.90
12926;DHT22;6529;50.566;9.774;2022-11-15T09:04:28;12.00;99.90
12926;DHT22;6529;50.566;9.774;2022-11-15T09:06:54;12.20;99.90
12926;DHT22;6529;50.566;9.774;2022-11-15T09:09:19;12.30;99.90
12926;DHT22;6529;50.566;9.774;2022-11-15T09:11:45;12.30;99.90
12926;DHT22;6529;50.566;9.774;2022-11-15T09:14:12;12.30;99.90
12926;DHT22;6529;50.566;9.774;2022-11-15T09:16:38;12.40;99.90
12926;DHT22;6529;50.566;9.774;2022-11-15T09:19:03;12.50;99.90
12926;DHT22;6529;50.566;9.774;2022-11-15T09:21:29;12.60;99.90
12926;DHT22;6529;50.566;9.774;2022-11-15T09:23:55;12.70;99.90
12926;DHT22;6529;50.566;9.774;2022-11-15T09:26:21;12.80;99.90
12926;DHT22;6529;50.566;9.774;2022-11-15T09:28:47;12.90;99.90
12926;DHT22;6529;50.566;9.774;2022-11-15T09:31:12;13.00;99.90
12926;DHT22;6529;50.566;9.774;2022-11-15T09:33:38;13.10;99.90
12926;DHT22;6529;50.566;9.774;2022-11-15T09:36:06;13.30;99.90
12926;DHT22;6529;50.566;9.774;2022-11-15T09:38:32;13.40;99.90
12926;DHT22;6529;50.566;9.774;2022-11-15T09:49:41;13.90;99.90
12926;DHT22;6529;50.566;9.774;2022-11-15T09:52:07;14.00;99.90
12926;DHT22;6529;50.566;9.774;2022-11-15T09:54:35;14.10;99.90
12926;DHT22;6529;50.566;9.774;2022-11-15T09:59:59;14.50;99.90
12926;DHT22;6529;50.566;9.774;2022-11-15T10:04:59;14.30;99.90
12926;DHT22;6529;50.566;9.774;2022-11-15T10:10:47;14.10;99.90
12926;DHT22;6529;50.566;9.774;2022-11-15T10:13:26;14.10;99.90
12926;DHT22;6529;50.566;9.774;2022-11-15T10:15:54;14.10;99.90
12926;DHT22;6529;50.566;9.774;2022-11-15T10:18:30;14.20;99.90
12926;DHT22;6529;50.566;9.774;2022-11-15T10:21:11;14.30;99.90
12926;DHT22;6529;50.566;9.774;2022-11-15T10:23:38;14.30;99.90
12926;DHT22;6529;50.566;9.774;2022-11-15T10:26:08;14.30;99.90
12926;DHT22;6529;50.566;9.774;2022-11-15T10:28:36;14.40;99.90
12926;DHT22;6529;50.566;9.774;2022-11-15T10:31:02;14.40;99.90
12926;DHT22;6529;50.566;9.774;2022-11-15T10:36:18;14.60;99.90
12926;DHT22;6529;50.566;9.774;2022-11-15T10:41:15;14.90;99.90
12926;DHT22;6529;50.566;9.774;2022-11-15T10:43:41;15.10;99.90
12926;DHT22;6529;50.566;9.774;2022-11-15T10:46:21;15.20;99.90
12926;DHT22;6529;50.566;9.774;2022-11-15T10:48:47;15.50;99.90
12926;DHT22;6529;50.566;9.774;2022-11-15T10:51:26;15.50;99.90
12926;DHT22;6529;50.566;9.774;2022-11-15T10:53:58;15.60;99.90
12926;DHT22;6529;50.566;9.774;2022-11-15T10:56:26;15.60;99.90
12926;DHT22;6529;50.566;9.774;2022-11-15T10:58:55;15.40;99.90
12926;DHT22;6529;50.566;9.774;2022-11-15T11:01:26;15.30;99.90
12926;DHT22;6529;50.566;9.774;2022-11-15T11:04:02;15.10;99.90
12926;DHT22;6529;50.566;9.774;2022-11-15T11:06:29;15.00;99.90
12926;DHT22;6529;50.566;9.774;2022-11-15T11:09:00;14.90;99.90
12926;DHT22;6529;50.566;9.774;2022-11-15T11:11:46;14.80;99.90
12926;DHT22;6529;50.566;9.774;2022-11-15T11:14:24;14.70;99.90
12926;DHT22;6529;50.566;9.774;2022-11-15T11:24:36;15.40;99.90
12926;DHT22;6529;50.566;9.774;2022-11-15T11:27:21;15.40;99.90
12926;DHT22;6529;50.566;9.774;2022-11-15T11:30:03;15.50;99.90
12926;DHT22;6529;50.566;9.774;2022-11-15T11:32:53;15.60;99.90
12926;DHT22;6529;50.566;9.774;2022-11-15T11:35:30;15.50;99.90
12926;DHT22;6529;50.566;9.774;2022-11-15T11:40:40;15.70;99.90
12926;DHT22;6529;50.566;9.774;2022-11-15T11:49:00;14.90;99.90
12926;DHT22;6529;50.566;9.774;2022-11-15T11:51:33;14.70;99.90
12926;DHT22;6529;50.566;9.774;2022-11-15T11:56:44;14.50;99.90
12926;DHT22;6529;50.566;9.774;2022-11-15T11:59:32;14.30;99.90
12926;DHT22;6529;50.566;9.774;2022-11-15T12:02:21;14.30;99.90
12926;DHT22;6529;50.566;9.774;2022-11-15T12:04:54;14.30;99.90
12926;DHT22;6529;50.566;9.774;2022-11-15T12:07:29;14.30;99.90
12926;DHT22;6529;50.566;9.774;2022-11-15T12:10:20;14.30;99.90
12926;DHT22;6529;50.566;9.774;2022-11-15T12:15:59;14.20;99.90
12926;DHT22;6529;50.566;9.774;2022-11-15T12:18:26;14.00;99.90
12926;DHT22;6529;50.566;9.774;2022-11-15T12:20:58;14.00;99.90
12926;DHT22;6529;50.566;9.774;2022-11-15T12:23:31;14.00;99.90
12926;DHT22;6529;50.566;9.774;2022-11-15T12:26:05;14.00;99.90
12926;DHT22;6529;50.566;9.774;2022-11-15T12:28:42;14.20;99.90
12926;DHT22;6529;50.566;9.774;2022-11-15T12:33:58;14.60;99.90
12926;DHT22;6529;50.566;9.774;2022-11-15T12:36:38;14.50;99.90
12926;DHT22;6529;50.566;9.774;2022-11-15T12:39:09;14.40;99.90
12926;DHT22;6529;50.566;9.774;2022-11-15T12:44:03;14.10;99.90
12926;DHT22;6529;50.566;9.774;2022-11-15T12:49:42;14.10;99.90
12926;DHT22;6529;50.566;9.774;2022-11-15T12:59:53;13.90;99.90
12926;DHT22;6529;50.566;9.774;2022-11-15T13:02:38;13.90;99.90
12926;DHT22;6529;50.566;9.774;2022-11-15T13:07:58;13.90;99.90
12926;DHT22;6529;50.566;9.774;2022-11-15T13:10:29;13.80;99.90
12926;DHT22;6529;50.566;9.774;2022-11-15T13:13:03;13.80;99.90
12926;DHT22;6529;50.566;9.774;2022-11-15T13:20:51;13.60;99.90
12926;DHT22;6529;50.566;9.774;2022-11-15T13:23:16;13.60;99.90
12926;DHT22;6529;50.566;9.774;2022-11-15T13:26:03;13.60;99.90
12926;DHT22;6529;50.566;9.774;2022-11-15T13:28:37;13.60;99.90
12926;DHT22;6529;50.566;9.774;2022-11-15T13:34:03;13.60;99.90
12926;DHT22;6529;50.566;9.774;2022-11-15T13:36:38;13.60;99.90
12926;DHT22;6529;50.566;9.774;2022-11-15T13:39:27;13.60;99.90
12926;DHT22;6529;50.566;9.774;2022-11-15T13:41:52;13.60;99.90
12926;DHT22;6529;50.566;9.774;2022-11-15T13:44:40;13.60;99.90
12926;DHT22;6529;50.566;9.774;2022-11-15T13:47:15;13.70;99.90
12926;DHT22;6529;50.566;9.774;2022-11-15T13:49:41;13.80;99.90
12926;DHT22;6529;50.566;9.774;2022-11-15T13:52:10;13.90;99.90
12926;DHT22;6529;50.566;9.774;2022-11-15T13:54:47;13.90;99.90
12926;DHT22;6529;50.566;9.774;2022-11-15T14:00:00;13.80;99.90
12926;DHT22;6529;50.566;9.774;2022-11-15T14:02:30;13.70;99.90
12926;DHT22;6529;50.566;9.774;2022-11-15T14:05:00;13.70;99.90
12926;DHT22;6529;50.566;9.774;2022-11-15T14:07:27;13.60;99.90
12926;DHT22;6529;50.566;9.774;2022-11-15T14:09:54;13.50;99.90
12926;DHT22;6529;50.566;9.774;2022-11-15T14:12:32;13.50;99.90
12926;DHT22;6529;50.566;9.774;2022-11-15T14:15:00;13.40;99.90
12926;DHT22;6529;50.566;9.774;2022-11-15T14:19:55;13.30;99.90
12926;DHT22;6529;50.566;9.774;2022-11-15T14:22:23;13.20;99.90
12926;DHT22;6529;50.566;9.774;2022-11-15T14:27:38;13.10;99.90
12926;DHT22;6529;50.566;9.774;2022-11-15T14:30:04;13.10;99.90
12926;DHT22;6529;50.566;9.774;2022-11-15T14:35:16;13.00;99.90
12926;DHT22;6529;50.566;9.774;2022-11-15T14:37:43;12.90;99.90
12926;DHT22;6529;50.566;9.774;2022-11-15T14:40:11;12.90;99.90
12926;DHT22;6529;50.566;9.774;2022-11-15T14:42:37;12.90;99.90
12926;DHT22;6529;50.566;9.774;2022-11-15T14:45:07;12.90;99.90
12926;DHT22;6529;50.566;9.774;2022-11-15T14:47:34;12.80;99.90
12926;DHT22;6529;50.566;9.774;2022-11-15T14:49:59;12.80;99.90
12926;DHT22;6529;50.566;9.774;2022-11-15T14:52:28;12.70;99.90
12926;DHT22;6529;50.566;9.774;2022-11-15T14:54:55;12.60;99.90
12926;DHT22;6529;50.566;9.774;2022-11-15T14:57:21;12.60;99.90
12926;DHT22;6529;50.566;9.774;2022-11-15T14:59:47;12.50;99.90
12926;DHT22;6529;50.566;9.774;2022-11-15T15:04:42;12.40;99.90
12926;DHT22;6529;50.566;9.774;2022-11-15T15:07:08;12.30;99.90
12926;DHT22;6529;50.566;9.774;2022-11-15T15:09:34;12.20;99.90
12926;DHT22;6529;50.566;9.774;2022-11-15T15:11:59;12.20;99.90
12926;DHT22;6529;50.566;9.774;2022-11-15T15:14:25;12.10;99.90
12926;DHT22;6529;50.566;9.774;2022-11-15T15:16:50;12.00;99.90
12926;DHT22;6529;50.566;9.774;2022-11-15T15:19:16;12.00;99.90
12926;DHT22;6529;50.566;9.774;2022-11-15T15:21:41;12.00;99.90
12926;DHT22;6529;50.566;9.774;2022-11-15T15:24:13;12.00;99.90
12926;DHT22;6529;50.566;9.774;2022-11-15T15:26:40;12.00;99.90
12926;DHT22;6529;50.566;9.774;2022-11-15T15:29:05;12.00;99.90
12926;DHT22;6529;50.566;9.774;2022-11-15T15:31:31;12.00;99.90
12926;DHT22;6529;50.566;9.774;2022-11-15T15:33:58;12.00;99.90
12926;DHT22;6529;50.566;9.774;2022-11-15T15:36:23;12.00;99.90
12926;DHT22;6529;50.566;9.774;2022-11-15T15:38:49;12.00;99.90
12926;DHT22;6529;50.566;9.774;2022-11-15T15:41:16;12.00;99.90
12926;DHT22;6529;50.566;9.774;2022-11-15T15:43:42;12.00;99.90
12926;DHT22;6529;50.566;9.774;2022-11-15T15:46:14;12.00;99.90
12926;DHT22;6529;50.566;9.774;2022-11-15T15:48:40;12.00;99.90
12926;DHT22;6529;50.566;9.774;2022-11-15T15:51:06;12.00;99.90
12926;DHT22;6529;50.566;9.774;2022-11-15T15:53:32;12.00;99.90
12926;DHT22;6529;50.566;9.774;2022-11-15T15:55:58;12.00;99.90
12926;DHT22;6529;50.566;9.774;2022-11-15T15:58:24;12.00;99.90
12926;DHT22;6529;50.566;9.774;2022-11-15T16:00:49;12.00;99.90
12926;DHT22;6529;50.566;9.774;2022-11-15T16:03:15;12.00;99.90
12926;DHT22;6529;50.566;9.774;2022-11-15T16:05:41;11.90;99.90
12926;DHT22;6529;50.566;9.774;2022-11-15T16:08:20;11.80;99.90
12926;DHT22;6529;50.566;9.774;2022-11-15T16:10:46;11.70;99.90
12926;DHT22;6529;50.566;9.774;2022-11-15T16:13:11;11.80;99.90
12926;DHT22;6529;50.566;9.774;2022-11-15T16:15:37;11.80;99.90
12926;DHT22;6529;50.566;9.774;2022-11-15T16:18:04;11.80;99.90
12926;DHT22;6529;50.566;9.774;2022-11-15T16:20:49;11.80;99.90
12926;DHT22;6529;50.566;9.774;2022-11-15T16:23:17;11.80;99.90
12926;DHT22;6529;50.566;9.774;2022-11-15T16:25:51;11.80;99.90
12926;DHT22;6529;50.566;9.774;2022-11-15T16:28:20;11.90;99.90
12926;DHT22;6529;50.566;9.774;2022-11-15T16:30:46;11.90;99.90
12926;DHT22;6529;50.566;9.774;2022-11-15T16:33:12;11.90;99.90
12926;DHT22;6529;50.566;9.774;2022-11-15T16:35:37;11.90;99.90
12926;DHT22;6529;50.566;9.774;2022-11-15T16:38:03;11.90;99.90
12926;DHT22;6529;50.566;9.774;2022-11-15T16:40:33;11.90;99.90
12926;DHT22;6529;50.566;9.774;2022-11-15T16:43:00;11.90;99.90
12926;DHT22;6529;50.566;9.774;2022-11-15T16:45:27;11.90;99.90
12926;DHT22;6529;50.566;9.774;2022-11-15T16:47:54;11.90;99.90
12926;DHT22;6529;50.566;9.774;2022-11-15T16:50:27;11.90;99.90
12926;DHT22;6529;50.566;9.774;2022-11-15T16:52:54;11.90;99.90
12926;DHT22;6529;50.566;9.774;2022-11-15T16:55:22;11.90;99.90
12926;DHT22;6529;50.566;9.774;2022-11-15T16:57:48;11.90;99.90
12926;DHT22;6529;50.566;9.774;2022-11-15T17:00:15;11.90;99.90
12926;DHT22;6529;50.566;9.774;2022-11-15T17:02:49;11.90;99.90
12926;DHT22;6529;50.566;9.774;2022-11-15T17:05:20;11.80;99.90
12926;DHT22;6529;50.566;9.774;2022-11-15T17:07:47;11.70;99.90
12926;DHT22;6529;50.566;9.774;2022-11-15T17:10:14;11.60;99.90
12926;DHT22;6529;50.566;9.774;2022-11-15T17:12:40;11.60;99.90
12926;DHT22;6529;50.566;9.774;2022-11-15T17:15:06;11.50;99.90
12926;DHT22;6529;50.566;9.774;2022-11-15T17:17:32;11.50;99.90
12926;DHT22;6529;50.566;9.774;2022-11-15T17:19:58;11.50;99.90
12926;DHT22;6529;50.566;9.774;2022-11-15T17:22:23;11.50;99.90
12926;DHT22;6529;50.566;9.774;2022-11-15T17:24:49;11.50;99.90
12926;DHT22;6529;50.566;9.774;2022-11-15T17:27:15;11.50;99.90
12926;DHT22;6529;50.566;9.774;2022-11-15T17:29:41;11.50;99.90
12926;DHT22;6529;50.566;9.774;2022-11-15T17:32:07;11.50;99.90
12926;DHT22;6529;50.566;9.774;2022-11-15T17:34:33;11.60;99.90
12926;DHT22;6529;50.566;9.774;2022-11-15T17:36:59;11.60;99.90
12926;DHT22;6529;50.566;9.774;2022-11-15T17:39:25;11.60;99.90
12926;DHT22;6529;50.566;9.774;2022-11-15T17:41:50;11.60;99.90
12926;DHT22;6529;50.566;9.774;2022-11-15T17:44:16;11.50;99.90
12926;DHT22;6529;50.566;9.774;2022-11-15T17:46:43;11.50;99.90